sensor_id;sensor_type;location;lat;lon;timestamp;pressure;altitude;pressure_sealevel;temperature;humidity
44313;BME280;38833;51.142;-0.974;2023-11-21T00:01:06;99902.62;;;26.71;32.30
44313;BME280;38833;51.142;-0.974;2023-11-21T00:03:40;99904.48;;;27.13;32.10
44313;BME280;38833;51.142;-0.974;2023-11-21T00:06:13;99910.04;;;27.03;32.18
44313;BME280;38833;51.142;-0.974;2023-11-21T00:08:46;99914.85;;;27.05;32.11
44313;BME280;38833;51.142;-0.974;2023-11-21T00:11:20;99914.92;;;26.71;32.20
44313;BME280;38833;51.142;-0.974;2023-11-21T00:13:53;99920.54;;;26.93;32.23
44313;BME280;38833;51.142;-0.974;2023-11-21T00:16:26;99926.40;;;26.90;32.24
44313;BME280;38833;51.142;-0.974;2023-11-21T00:18:59;99931.74;;;26.82;32.26
44313;BME280;38833;51.142;-0.974;2023-11-21T00:21:32;99932.09;;;26.70;32.38
44313;BME280;38833;51.142;-0.974;2023-11-21T00:24:06;99937.91;;;26.70;32.39
44313;BME280;38833;51.142;-0.974;2023-11-21T00:26:39;99937.17;;;26.59;32.45
44313;BME280;38833;51.142;-0.974;2023-11-21T00:30:55;99940.41;;;26.75;32.25
44313;BME280;38833;51.142;-0.974;2023-11-21T00:33:28;99942.05;;;26.79;32.18
44313;BME280;38833;51.142;-0.974;2023-11-21T00:36:01;99942.35;;;26.74;32.21
44313;BME280;38833;51.142;-0.974;2023-11-21T00:38:34;99948.69;;;26.62;32.31
44313;BME280;38833;51.142;-0.974;2023-11-21T00:41:07;99956.28;;;26.64;32.30
44313;BME280;38833;51.142;-0.974;2023-11-21T00:43:41;99962.21;;;26.63;32.30
44313;BME280;38833;51.142;-0.974;2023-11-21T00:46:14;99955.29;;;26.54;32.37
44313;BME280;38833;51.142;-0.974;2023-11-21T00:48:47;99955.96;;;26.09;32.57
44313;BME280;38833;51.142;-0.974;2023-11-21T00:51:20;99956.33;;;26.53;32.32
44313;BME280;38833;51.142;-0.974;2023-11-21T00:53:54;99951.60;;;26.61;32.43
44313;BME280;38833;51.142;-0.974;2023-11-21T00:56:27;99948.43;;;26.42;32.39
44313;BME280;38833;51.142;-0.974;2023-11-21T00:59:00;99949.87;;;26.38;32.44
44313;BME280;38833;51.142;-0.974;2023-11-21T01:01:33;99950.52;;;26.29;32.45
44313;BME280;38833;51.142;-0.974;2023-11-21T01:04:06;99951.13;;;26.31;32.48
44313;BME280;38833;51.142;-0.974;2023-11-21T01:06:39;99954.43;;;26.26;32.50
44313;BME280;38833;51.142;-0.974;2023-11-21T01:09:13;99958.81;;;26.27;32.45
44313;BME280;38833;51.142;-0.974;2023-11-21T01:11:46;99959.06;;;26.11;32.60
44313;BME280;38833;51.142;-0.974;2023-11-21T01:14:19;99964.14;;;26.35;32.60
44313;BME280;38833;51.142;-0.974;2023-11-21T01:16:52;99964.96;;;26.26;32.66
44313;BME280;38833;51.142;-0.974;2023-11-21T01:19:26;99969.36;;;26.30;32.63
44313;BME280;38833;51.142;-0.974;2023-11-21T01:21:59;99973.13;;;26.34;32.54
44313;BME280;38833;51.142;-0.974;2023-11-21T01:24:32;99976.78;;;26.17;32.69
44313;BME280;38833;51.142;-0.974;2023-11-21T01:27:05;99978.64;;;26.17;32.72
44313;BME280;38833;51.142;-0.974;2023-11-21T01:29:38;99977.43;;;25.94;32.69
44313;BME280;38833;51.142;-0.974;2023-11-21T01:32:12;99979.06;;;26.02;32.79
44313;BME280;38833;51.142;-0.974;2023-11-21T01:34:45;99978.69;;;26.18;32.67
44313;BME280;38833;51.142;-0.974;2023-11-21T01:37:18;99982.10;;;26.39;32.70
44313;BME280;38833;51.142;-0.974;2023-11-21T01:39:51;99988.44;;;26.30;32.73
44313;BME280;38833;51.142;-0.974;2023-11-21T01:42:24;99986.63;;;25.80;32.74
44313;BME280;38833;51.142;-0.974;2023-11-21T01:44:57;99993.33;;;25.78;32.77
44313;BME280;38833;51.142;-0.974;2023-11-21T01:47:31;99996.41;;;26.02;32.73
44313;BME280;38833;51.142;-0.974;2023-11-21T01:50:07;100004.96;;;25.88;32.84
44313;BME280;38833;51.142;-0.974;2023-11-21T01:52:43;100007.59;;;26.19;32.81
44313;BME280;38833;51.142;-0.974;2023-11-21T01:55:17;100009.06;;;25.86;32.86
44313;BME280;38833;51.142;-0.974;2023-11-21T01:57:51;100013.40;;;25.89;32.82
44313;BME280;38833;51.142;-0.974;2023-11-21T02:00:24;100015.21;;;26.14;32.82
44313;BME280;38833;51.142;-0.974;2023-11-21T02:02:58;100020.73;;;25.88;32.80
44313;BME280;38833;51.142;-0.974;2023-11-21T02:05:31;100020.58;;;25.90;32.76
44313;BME280;38833;51.142;-0.974;2023-11-21T02:12:05;100029.97;;;26.18;32.67
44313;BME280;38833;51.142;-0.974;2023-11-21T02:14:39;100033.52;;;25.91;32.66
44313;BME280;38833;51.142;-0.974;2023-11-21T02:17:12;100036.00;;;25.79;32.78
44313;BME280;38833;51.142;-0.974;2023-11-21T02:19:45;100037.02;;;26.14;32.68
44313;BME280;38833;51.142;-0.974;2023-11-21T02:22:19;100037.63;;;25.83;32.75
44313;BME280;38833;51.142;-0.974;2023-11-21T02:24:52;100045.28;;;25.93;32.89
44313;BME280;38833;51.142;-0.974;2023-11-21T02:27:25;100049.50;;;25.42;32.91
44313;BME280;38833;51.142;-0.974;2023-11-21T02:29:59;100051.29;;;25.89;32.93
44313;BME280;38833;51.142;-0.974;2023-11-21T02:32:32;100054.58;;;25.63;32.92
44313;BME280;38833;51.142;-0.974;2023-11-21T02:35:05;100057.07;;;25.89;32.88
44313;BME280;38833;51.142;-0.974;2023-11-21T02:37:39;100058.77;;;25.93;32.86
44313;BME280;38833;51.142;-0.974;2023-11-21T02:40:12;100061.15;;;25.85;32.89
44313;BME280;38833;51.142;-0.974;2023-11-21T02:42:45;100064.74;;;25.92;32.83
44313;BME280;38833;51.142;-0.974;2023-11-21T02:45:20;100067.46;;;25.87;32.87
44313;BME280;38833;51.142;-0.974;2023-11-21T02:47:53;100065.75;;;25.81;32.90
44313;BME280;38833;51.142;-0.974;2023-11-21T02:50:26;100070.23;;;25.83;32.90
44313;BME280;38833;51.142;-0.974;2023-11-21T02:53:00;100071.26;;;25.69;32.98
44313;BME280;38833;51.142;-0.974;2023-11-21T02:55:33;100072.65;;;25.77;32.94
44313;BME280;38833;51.142;-0.974;2023-11-21T02:58:06;100076.94;;;25.38;33.06
44313;BME280;38833;51.142;-0.974;2023-11-21T03:00:39;100083.39;;;25.39;32.99
44313;BME280;38833;51.142;-0.974;2023-11-21T03:03:13;100090.53;;;25.69;32.97
44313;BME280;38833;51.142;-0.974;2023-11-21T03:05:46;100090.46;;;25.67;32.96
44313;BME280;38833;51.142;-0.974;2023-11-21T03:08:19;100095.25;;;25.60;33.02
44313;BME280;38833;51.142;-0.974;2023-11-21T03:10:52;100096.84;;;25.35;33.01
44313;BME280;38833;51.142;-0.974;2023-11-21T03:13:25;100099.70;;;25.64;32.92
44313;BME280;38833;51.142;-0.974;2023-11-21T03:15:58;100108.40;;;25.48;33.13
44313;BME280;38833;51.142;-0.974;2023-11-21T03:21:00;100107.80;;;25.55;32.98
44313;BME280;38833;51.142;-0.974;2023-11-21T03:23:33;100111.19;;;25.29;32.95
44313;BME280;38833;51.142;-0.974;2023-11-21T03:26:11;100107.87;;;25.66;32.83
44313;BME280;38833;51.142;-0.974;2023-11-21T03:28:44;100112.46;;;25.26;32.95
44313;BME280;38833;51.142;-0.974;2023-11-21T03:31:17;100111.01;;;25.53;32.94
44313;BME280;38833;51.142;-0.974;2023-11-21T03:33:50;100116.84;;;25.92;33.01
44313;BME280;38833;51.142;-0.974;2023-11-21T03:36:23;100122.42;;;25.34;33.13
44313;BME280;38833;51.142;-0.974;2023-11-21T03:38:57;100124.59;;;25.33;33.13
44313;BME280;38833;51.142;-0.974;2023-11-21T03:41:30;100130.59;;;25.20;32.97
44313;BME280;38833;51.142;-0.974;2023-11-21T03:44:04;100127.13;;;25.35;33.10
44313;BME280;38833;51.142;-0.974;2023-11-21T03:46:37;100125.28;;;25.29;33.15
44313;BME280;38833;51.142;-0.974;2023-11-21T03:49:10;100129.05;;;25.34;33.08
44313;BME280;38833;51.142;-0.974;2023-11-21T03:51:43;100137.68;;;25.39;33.03
44313;BME280;38833;51.142;-0.974;2023-11-21T03:54:16;100140.82;;;25.25;33.09
44313;BME280;38833;51.142;-0.974;2023-11-21T03:56:50;100146.81;;;25.28;33.13
44313;BME280;38833;51.142;-0.974;2023-11-21T03:59:23;100154.01;;;25.21;33.18
44313;BME280;38833;51.142;-0.974;2023-11-21T04:01:56;100160.08;;;25.25;33.13
44313;BME280;38833;51.142;-0.974;2023-11-21T04:04:30;100164.19;;;25.17;33.21
44313;BME280;38833;51.142;-0.974;2023-11-21T04:07:03;100167.05;;;25.16;33.17
44313;BME280;38833;51.142;-0.974;2023-11-21T04:09:36;100165.97;;;25.30;33.25
44313;BME280;38833;51.142;-0.974;2023-11-21T04:12:09;100171.86;;;25.30;33.23
44313;BME280;38833;51.142;-0.974;2023-11-21T04:14:42;100176.88;;;25.11;33.21
44313;BME280;38833;51.142;-0.974;2023-11-21T04:17:18;100181.74;;;25.25;33.28
44313;BME280;38833;51.142;-0.974;2023-11-21T04:19:51;100181.65;;;25.14;33.17
44313;BME280;38833;51.142;-0.974;2023-11-21T04:22:24;100188.90;;;24.99;33.33
44313;BME280;38833;51.142;-0.974;2023-11-21T04:24:58;100198.30;;;25.05;33.24
44313;BME280;38833;51.142;-0.974;2023-11-21T04:27:31;100208.01;;;25.12;33.15
44313;BME280;38833;51.142;-0.974;2023-11-21T04:30:05;100209.57;;;25.09;33.19
44313;BME280;38833;51.142;-0.974;2023-11-21T04:32:39;100215.75;;;25.01;33.23
44313;BME280;38833;51.142;-0.974;2023-11-21T04:35:12;100218.55;;;24.95;33.29
44313;BME280;38833;51.142;-0.974;2023-11-21T04:37:45;100220.76;;;25.07;33.15
44313;BME280;38833;51.142;-0.974;2023-11-21T04:40:19;100224.12;;;24.94;33.27
44313;BME280;38833;51.142;-0.974;2023-11-21T04:42:52;100226.57;;;24.90;33.33
44313;BME280;38833;51.142;-0.974;2023-11-21T04:45:25;100222.63;;;24.77;33.45
44313;BME280;38833;51.142;-0.974;2023-11-21T04:47:58;100221.60;;;25.14;33.26
44313;BME280;38833;51.142;-0.974;2023-11-21T04:50:31;100224.77;;;24.95;33.23
44313;BME280;38833;51.142;-0.974;2023-11-21T04:53:04;100226.36;;;25.11;33.27
44313;BME280;38833;51.142;-0.974;2023-11-21T04:55:37;100225.52;;;24.76;33.39
44313;BME280;38833;51.142;-0.974;2023-11-21T04:58:11;100228.28;;;24.94;33.19
44313;BME280;38833;51.142;-0.974;2023-11-21T05:00:44;100232.23;;;24.86;33.23
44313;BME280;38833;51.142;-0.974;2023-11-21T05:03:17;100230.54;;;25.32;33.21
44313;BME280;38833;51.142;-0.974;2023-11-21T05:05:50;100234.83;;;24.80;33.32
44313;BME280;38833;51.142;-0.974;2023-11-21T05:08:23;100231.64;;;24.76;33.36
44313;BME280;38833;51.142;-0.974;2023-11-21T05:10:57;100235.04;;;25.19;33.39
44313;BME280;38833;51.142;-0.974;2023-11-21T05:13:33;100237.07;;;25.07;33.48
44313;BME280;38833;51.142;-0.974;2023-11-21T05:16:07;100237.44;;;24.97;33.33
44313;BME280;38833;51.142;-0.974;2023-11-21T05:18:40;100245.82;;;25.24;33.28
44313;BME280;38833;51.142;-0.974;2023-11-21T05:21:14;100257.61;;;24.75;33.27
44313;BME280;38833;51.142;-0.974;2023-11-21T05:23:47;100261.23;;;24.79;33.26
44313;BME280;38833;51.142;-0.974;2023-11-21T05:26:20;100273.08;;;24.95;33.31
44313;BME280;38833;51.142;-0.974;2023-11-21T05:28:53;100269.46;;;24.79;33.21
44313;BME280;38833;51.142;-0.974;2023-11-21T05:31:27;100266.86;;;24.76;33.26
44313;BME280;38833;51.142;-0.974;2023-11-21T05:34:00;100271.09;;;24.85;33.19
44313;BME280;38833;51.142;-0.974;2023-11-21T05:36:33;100274.05;;;24.99;33.25
44313;BME280;38833;51.142;-0.974;2023-11-21T05:39:06;100284.65;;;25.00;33.22
44313;BME280;38833;51.142;-0.974;2023-11-21T05:41:39;100292.88;;;25.30;32.89
44313;BME280;38833;51.142;-0.974;2023-11-21T05:44:12;100298.38;;;24.87;33.76
44313;BME280;38833;51.142;-0.974;2023-11-21T05:46:45;100299.22;;;24.14;34.23
44313;BME280;38833;51.142;-0.974;2023-11-21T05:49:19;100306.10;;;24.25;34.15
44313;BME280;38833;51.142;-0.974;2023-11-21T05:51:52;100314.41;;;24.79;33.85
44313;BME280;38833;51.142;-0.974;2023-11-21T05:54:26;100317.97;;;24.92;33.53
44313;BME280;38833;51.142;-0.974;2023-11-21T05:57:00;100321.33;;;25.23;33.42
44313;BME280;38833;51.142;-0.974;2023-11-21T05:59:33;100323.53;;;25.07;33.45
44313;BME280;38833;51.142;-0.974;2023-11-21T06:02:06;100326.93;;;25.49;32.65
44313;BME280;38833;51.142;-0.974;2023-11-21T06:04:39;100329.57;;;25.74;32.19
44313;BME280;38833;51.142;-0.974;2023-11-21T06:07:13;100330.13;;;25.99;31.96
44313;BME280;38833;51.142;-0.974;2023-11-21T06:09:46;100335.59;;;26.35;31.87
44313;BME280;38833;51.142;-0.974;2023-11-21T06:12:19;100341.07;;;26.28;32.00
44313;BME280;38833;51.142;-0.974;2023-11-21T06:14:52;100351.40;;;26.18;32.21
44313;BME280;38833;51.142;-0.974;2023-11-21T06:17:25;100353.86;;;26.45;32.29
44313;BME280;38833;51.142;-0.974;2023-11-21T06:19:58;100357.22;;;26.21;32.33
44313;BME280;38833;51.142;-0.974;2023-11-21T06:22:31;100362.87;;;26.14;32.49
44313;BME280;38833;51.142;-0.974;2023-11-21T06:25:05;100358.85;;;26.63;32.29
44313;BME280;38833;51.142;-0.974;2023-11-21T06:27:41;100358.68;;;26.32;32.16
44313;BME280;38833;51.142;-0.974;2023-11-21T06:30:15;100361.65;;;26.70;32.05
44313;BME280;38833;51.142;-0.974;2023-11-21T06:32:49;100358.22;;;26.50;32.06
44313;BME280;38833;51.142;-0.974;2023-11-21T06:35:23;100361.96;;;26.39;32.20
44313;BME280;38833;51.142;-0.974;2023-11-21T06:37:56;100365.40;;;26.54;32.08
44313;BME280;38833;51.142;-0.974;2023-11-21T06:40:29;100371.98;;;26.58;32.08
44313;BME280;38833;51.142;-0.974;2023-11-21T06:43:02;100375.52;;;26.70;31.97
44313;BME280;38833;51.142;-0.974;2023-11-21T06:45:36;100378.09;;;27.05;32.16
44313;BME280;38833;51.142;-0.974;2023-11-21T06:48:09;100382.75;;;26.45;32.30
44313;BME280;38833;51.142;-0.974;2023-11-21T06:50:42;100392.96;;;26.54;32.21
44313;BME280;38833;51.142;-0.974;2023-11-21T06:53:15;100398.13;;;26.53;32.82
44313;BME280;38833;51.142;-0.974;2023-11-21T06:55:48;100404.21;;;26.39;32.47
44313;BME280;38833;51.142;-0.974;2023-11-21T06:58:21;100409.64;;;26.63;32.45
44313;BME280;38833;51.142;-0.974;2023-11-21T07:00:55;100420.83;;;26.53;32.34
44313;BME280;38833;51.142;-0.974;2023-11-21T07:03:28;100424.74;;;26.85;32.21
44313;BME280;38833;51.142;-0.974;2023-11-21T07:06:01;100434.45;;;26.53;32.34
44313;BME280;38833;51.142;-0.974;2023-11-21T07:08:34;100441.15;;;26.18;32.74
44313;BME280;38833;51.142;-0.974;2023-11-21T07:11:07;100446.45;;;26.16;32.77
44313;BME280;38833;51.142;-0.974;2023-11-21T07:13:40;100451.08;;;26.06;32.90
44313;BME280;38833;51.142;-0.974;2023-11-21T07:16:14;100456.87;;;25.94;33.05
44313;BME280;38833;51.142;-0.974;2023-11-21T07:18:47;100457.45;;;26.07;32.88
44313;BME280;38833;51.142;-0.974;2023-11-21T07:21:20;100462.35;;;26.33;32.61
44313;BME280;38833;51.142;-0.974;2023-11-21T07:23:54;100467.04;;;26.48;32.46
44313;BME280;38833;51.142;-0.974;2023-11-21T07:26:27;100474.45;;;25.67;33.05
44313;BME280;38833;51.142;-0.974;2023-11-21T07:29:46;100479.26;;;26.01;32.97
44313;BME280;38833;51.142;-0.974;2023-11-21T07:32:20;100486.67;;;26.65;32.23
44313;BME280;38833;51.142;-0.974;2023-11-21T07:34:53;100487.36;;;26.75;32.10
44313;BME280;38833;51.142;-0.974;2023-11-21T07:37:26;100487.84;;;25.89;33.13
44313;BME280;38833;51.142;-0.974;2023-11-21T07:40:00;100493.28;;;25.88;33.14
44313;BME280;38833;51.142;-0.974;2023-11-21T07:42:33;100496.36;;;26.43;32.52
44313;BME280;38833;51.142;-0.974;2023-11-21T07:45:07;100504.90;;;26.37;32.15
44313;BME280;38833;51.142;-0.974;2023-11-21T07:47:41;100505.43;;;26.33;32.42
44313;BME280;38833;51.142;-0.974;2023-11-21T07:50:14;100510.14;;;25.89;32.62
44313;BME280;38833;51.142;-0.974;2023-11-21T07:52:47;100511.41;;;26.23;32.44
44313;BME280;38833;51.142;-0.974;2023-11-21T07:55:20;100517.82;;;26.04;32.53
44313;BME280;38833;51.142;-0.974;2023-11-21T07:57:54;100521.80;;;25.66;32.93
44313;BME280;38833;51.142;-0.974;2023-11-21T08:00:27;100519.64;;;25.59;33.00
44313;BME280;38833;51.142;-0.974;2023-11-21T08:03:00;100524.59;;;26.17;32.32
44313;BME280;38833;51.142;-0.974;2023-11-21T08:05:34;100532.71;;;26.63;31.79
44313;BME280;38833;51.142;-0.974;2023-11-21T08:08:07;100538.20;;;26.40;32.01
44313;BME280;38833;51.142;-0.974;2023-11-21T08:10:41;100544.63;;;26.88;31.45
44313;BME280;38833;51.142;-0.974;2023-11-21T08:13:14;100544.28;;;26.93;31.35
44313;BME280;38833;51.142;-0.974;2023-11-21T08:15:47;100541.92;;;26.88;31.39
44313;BME280;38833;51.142;-0.974;2023-11-21T08:18:20;100540.82;;;26.70;31.56
44313;BME280;38833;51.142;-0.974;2023-11-21T08:20:54;100544.52;;;26.75;31.43
44313;BME280;38833;51.142;-0.974;2023-11-21T08:23:28;100546.00;;;26.72;31.39
44313;BME280;38833;51.142;-0.974;2023-11-21T08:26:01;100553.20;;;26.64;31.47
44313;BME280;38833;51.142;-0.974;2023-11-21T08:28:34;100557.78;;;26.81;31.89
44313;BME280;38833;51.142;-0.974;2023-11-21T08:31:08;100557.63;;;27.10;32.23
44313;BME280;38833;51.142;-0.974;2023-11-21T08:33:41;100560.61;;;27.03;32.52
44313;BME280;38833;51.142;-0.974;2023-11-21T08:36:14;100559.86;;;27.04;32.66
44313;BME280;38833;51.142;-0.974;2023-11-21T08:38:47;100562.45;;;26.78;32.61
44313;BME280;38833;51.142;-0.974;2023-11-21T08:41:21;100567.07;;;26.78;32.43
44313;BME280;38833;51.142;-0.974;2023-11-21T08:43:54;100567.99;;;26.92;32.41
44313;BME280;38833;51.142;-0.974;2023-11-21T08:46:28;100566.73;;;26.79;32.43
44313;BME280;38833;51.142;-0.974;2023-11-21T08:49:01;100572.71;;;26.86;32.16
44313;BME280;38833;51.142;-0.974;2023-11-21T08:51:35;100571.30;;;26.78;31.91
44313;BME280;38833;51.142;-0.974;2023-11-21T08:54:08;100576.93;;;26.89;31.68
44313;BME280;38833;51.142;-0.974;2023-11-21T08:56:41;100583.30;;;26.88;31.62
44313;BME280;38833;51.142;-0.974;2023-11-21T08:59:16;100585.19;;;26.79;31.58
44313;BME280;38833;51.142;-0.974;2023-11-21T09:01:49;100592.06;;;26.92;31.40
44313;BME280;38833;51.142;-0.974;2023-11-21T09:04:22;100599.23;;;26.90;31.29
44313;BME280;38833;51.142;-0.974;2023-11-21T09:06:55;100593.22;;;27.15;31.11
44313;BME280;38833;51.142;-0.974;2023-11-21T09:12:07;100600.50;;;27.01;30.78
44313;BME280;38833;51.142;-0.974;2023-11-21T09:14:40;100603.18;;;26.75;30.68
44313;BME280;38833;51.142;-0.974;2023-11-21T09:17:14;100606.86;;;27.04;30.58
44313;BME280;38833;51.142;-0.974;2023-11-21T09:19:47;100605.23;;;27.00;30.69
44313;BME280;38833;51.142;-0.974;2023-11-21T09:22:20;100609.57;;;26.94;30.71
44313;BME280;38833;51.142;-0.974;2023-11-21T09:24:53;100610.04;;;26.93;30.55
44313;BME280;38833;51.142;-0.974;2023-11-21T09:27:26;100612.81;;;27.18;30.58
44313;BME280;38833;51.142;-0.974;2023-11-21T09:29:59;100619.96;;;27.02;30.44
44313;BME280;38833;51.142;-0.974;2023-11-21T09:32:32;100622.56;;;27.23;30.32
44313;BME280;38833;51.142;-0.974;2023-11-21T09:35:06;100621.15;;;26.98;30.29
44313;BME280;38833;51.142;-0.974;2023-11-21T09:37:40;100621.89;;;27.23;30.19
44313;BME280;38833;51.142;-0.974;2023-11-21T09:40:13;100622.79;;;27.16;30.01
44313;BME280;38833;51.142;-0.974;2023-11-21T09:42:53;100624.21;;;26.84;30.21
44313;BME280;38833;51.142;-0.974;2023-11-21T09:45:28;100630.65;;;27.09;30.06
44313;BME280;38833;51.142;-0.974;2023-11-21T09:48:02;100622.93;;;27.13;29.90
44313;BME280;38833;51.142;-0.974;2023-11-21T09:50:36;100629.77;;;26.90;29.90
44313;BME280;38833;51.142;-0.974;2023-11-21T09:53:15;100637.54;;;26.81;30.17
44313;BME280;38833;51.142;-0.974;2023-11-21T09:55:51;100643.25;;;26.86;30.04
44313;BME280;38833;51.142;-0.974;2023-11-21T09:58:25;100648.89;;;27.10;29.82
44313;BME280;38833;51.142;-0.974;2023-11-21T10:01:00;100652.48;;;26.72;30.01
44313;BME280;38833;51.142;-0.974;2023-11-21T10:03:35;100656.06;;;26.90;30.04
44313;BME280;38833;51.142;-0.974;2023-11-21T10:06:09;100664.25;;;26.47;30.27
44313;BME280;38833;51.142;-0.974;2023-11-21T10:08:43;100672.14;;;26.44;30.39
44313;BME280;38833;51.142;-0.974;2023-11-21T10:11:18;100675.56;;;26.73;30.09
44313;BME280;38833;51.142;-0.974;2023-11-21T10:13:54;100675.81;;;27.00;29.98
44313;BME280;38833;51.142;-0.974;2023-11-21T10:16:28;100670.59;;;26.82;29.82
44313;BME280;38833;51.142;-0.974;2023-11-21T10:19:01;100676.48;;;26.73;30.02
44313;BME280;38833;51.142;-0.974;2023-11-21T10:21:35;100677.87;;;26.75;29.88
44313;BME280;38833;51.142;-0.974;2023-11-21T10:24:08;100674.94;;;26.88;29.99
44313;BME280;38833;51.142;-0.974;2023-11-21T10:26:42;100673.07;;;26.93;29.80
44313;BME280;38833;51.142;-0.974;2023-11-21T10:29:15;100676.03;;;26.87;30.09
44313;BME280;38833;51.142;-0.974;2023-11-21T10:31:49;100678.78;;;26.87;29.91
44313;BME280;38833;51.142;-0.974;2023-11-21T10:34:23;100679.11;;;26.72;29.96
44313;BME280;38833;51.142;-0.974;2023-11-21T10:36:56;100680.74;;;26.76;29.97
44313;BME280;38833;51.142;-0.974;2023-11-21T10:39:29;100679.60;;;26.75;30.03
44313;BME280;38833;51.142;-0.974;2023-11-21T10:42:03;100680.32;;;26.54;29.92
44313;BME280;38833;51.142;-0.974;2023-11-21T10:44:36;100680.01;;;26.55;29.82
44313;BME280;38833;51.142;-0.974;2023-11-21T10:47:09;100678.48;;;26.74;29.77
44313;BME280;38833;51.142;-0.974;2023-11-21T10:49:43;100680.00;;;26.95;29.85
44313;BME280;38833;51.142;-0.974;2023-11-21T10:52:19;100687.94;;;26.39;29.99
44313;BME280;38833;51.142;-0.974;2023-11-21T10:54:52;100692.04;;;26.41;29.77
44313;BME280;38833;51.142;-0.974;2023-11-21T10:57:25;100695.87;;;26.66;29.77
44313;BME280;38833;51.142;-0.974;2023-11-21T10:59:58;100695.58;;;26.03;30.26
44313;BME280;38833;51.142;-0.974;2023-11-21T11:02:32;100695.09;;;26.51;30.15
44313;BME280;38833;51.142;-0.974;2023-11-21T11:05:06;100697.70;;;26.51;30.35
44313;BME280;38833;51.142;-0.974;2023-11-21T11:07:42;100701.49;;;26.25;30.53
44313;BME280;38833;51.142;-0.974;2023-11-21T11:10:16;100699.15;;;26.51;30.66
44313;BME280;38833;51.142;-0.974;2023-11-21T11:12:49;100694.54;;;26.47;30.78
44313;BME280;38833;51.142;-0.974;2023-11-21T11:15:22;100696.86;;;26.37;31.00
44313;BME280;38833;51.142;-0.974;2023-11-21T11:17:56;100701.90;;;26.45;31.11
44313;BME280;38833;51.142;-0.974;2023-11-21T11:20:32;100703.11;;;26.43;31.25
44313;BME280;38833;51.142;-0.974;2023-11-21T11:23:27;100707.96;;;26.70;31.16
44313;BME280;38833;51.142;-0.974;2023-11-21T11:26:12;100706.26;;;26.65;31.38
44313;BME280;38833;51.142;-0.974;2023-11-21T11:29:00;100707.31;;;26.69;31.48
44313;BME280;38833;51.142;-0.974;2023-11-21T11:31:48;100708.24;;;26.72;31.54
44313;BME280;38833;51.142;-0.974;2023-11-21T11:34:29;100707.90;;;26.72;31.65
44313;BME280;38833;51.142;-0.974;2023-11-21T11:37:05;100706.36;;;26.76;31.79
44313;BME280;38833;51.142;-0.974;2023-11-21T11:39:40;100710.41;;;26.79;31.95
44313;BME280;38833;51.142;-0.974;2023-11-21T11:42:15;100708.07;;;26.83;31.99
44313;BME280;38833;51.142;-0.974;2023-11-21T11:44:50;100708.24;;;26.80;32.19
44313;BME280;38833;51.142;-0.974;2023-11-21T11:47:25;100713.14;;;26.89;32.08
44313;BME280;38833;51.142;-0.974;2023-11-21T11:50:02;100713.97;;;26.82;32.21
44313;BME280;38833;51.142;-0.974;2023-11-21T11:52:38;100717.81;;;26.68;32.22
44313;BME280;38833;51.142;-0.974;2023-11-21T11:55:13;100722.40;;;27.17;30.89
44313;BME280;38833;51.142;-0.974;2023-11-21T11:57:47;100724.40;;;26.97;29.73
44313;BME280;38833;51.142;-0.974;2023-11-21T12:00:22;100723.66;;;26.81;29.59
44313;BME280;38833;51.142;-0.974;2023-11-21T12:03:08;100724.74;;;26.99;29.40
44313;BME280;38833;51.142;-0.974;2023-11-21T12:05:42;100727.61;;;26.86;29.37
44313;BME280;38833;51.142;-0.974;2023-11-21T12:08:16;100731.38;;;26.83;29.37
44313;BME280;38833;51.142;-0.974;2023-11-21T12:10:49;100731.30;;;26.59;29.21
44313;BME280;38833;51.142;-0.974;2023-11-21T12:13:23;100736.83;;;27.01;29.33
44313;BME280;38833;51.142;-0.974;2023-11-21T12:15:56;100740.48;;;26.52;29.20
44313;BME280;38833;51.142;-0.974;2023-11-21T12:18:30;100736.94;;;26.69;29.25
44313;BME280;38833;51.142;-0.974;2023-11-21T12:21:03;100741.85;;;26.44;29.07
44313;BME280;38833;51.142;-0.974;2023-11-21T12:23:37;100748.08;;;26.68;29.06
44313;BME280;38833;51.142;-0.974;2023-11-21T12:26:10;100753.46;;;26.35;29.09
44313;BME280;38833;51.142;-0.974;2023-11-21T12:28:43;100758.00;;;26.38;29.20
44313;BME280;38833;51.142;-0.974;2023-11-21T12:31:24;100757.92;;;26.16;29.19
44313;BME280;38833;51.142;-0.974;2023-11-21T12:33:57;100760.77;;;26.39;29.19
44313;BME280;38833;51.142;-0.974;2023-11-21T12:36:31;100759.44;;;26.24;29.08
44313;BME280;38833;51.142;-0.974;2023-11-21T12:39:05;100760.47;;;26.56;28.95
44313;BME280;38833;51.142;-0.974;2023-11-21T12:41:38;100763.23;;;26.93;28.91
44313;BME280;38833;51.142;-0.974;2023-11-21T12:44:13;100764.50;;;26.74;28.79
44313;BME280;38833;51.142;-0.974;2023-11-21T12:46:46;100768.04;;;26.19;28.92
44313;BME280;38833;51.142;-0.974;2023-11-21T12:49:19;100780.42;;;26.44;28.87
44313;BME280;38833;51.142;-0.974;2023-11-21T12:51:52;100787.98;;;26.36;28.88
44313;BME280;38833;51.142;-0.974;2023-11-21T12:54:26;100786.90;;;26.34;28.85
44313;BME280;38833;51.142;-0.974;2023-11-21T12:57:00;100786.30;;;26.28;28.88
44313;BME280;38833;51.142;-0.974;2023-11-21T12:59:33;100789.23;;;25.86;29.66
44313;BME280;38833;51.142;-0.974;2023-11-21T13:02:07;100787.01;;;25.99;29.65
44313;BME280;38833;51.142;-0.974;2023-11-21T13:04:40;100787.49;;;26.04;29.82
44313;BME280;38833;51.142;-0.974;2023-11-21T13:07:13;100787.37;;;26.29;30.07
44313;BME280;38833;51.142;-0.974;2023-11-21T13:09:46;100790.83;;;26.11;30.26
44313;BME280;38833;51.142;-0.974;2023-11-21T13:12:24;100795.76;;;26.20;30.27
44313;BME280;38833;51.142;-0.974;2023-11-21T13:15:04;100793.02;;;26.47;30.45
44313;BME280;38833;51.142;-0.974;2023-11-21T13:17:37;100785.42;;;26.50;30.54
44313;BME280;38833;51.142;-0.974;2023-11-21T13:20:11;100789.52;;;26.33;30.66
44313;BME280;38833;51.142;-0.974;2023-11-21T13:22:47;100793.38;;;26.40;30.71
44313;BME280;38833;51.142;-0.974;2023-11-21T13:25:21;100798.42;;;26.64;30.38